Airfield :
LOGIN :

Register | Disclaimer

   EN    FR    IT 

 










Legend :    VFR   Marginal VFR   IFR   Intensive IFR   Very Intensive IFR
Visi :
Ceiling :
>= 8 km
>= 3000ft
5 to 8 km
1000 to 3000 ft
1500m to 5 km
500 to 1000 ft
800 to 1500m
200 to 500 ft
< 800m
< 200 ft
Symbols :   Thunderstorms  Fog  Heavy snow  Heavy precipitations  Wind > 20 kt
SIGMETs :     Misc.  Thunderstorms  Icing  Turbulence  Mountain Waves  Volcanic Ashes






- Airport Elevation : 12 ft
- IATA code : BCN


LEBL - Barcelone

CURRENT METAR :
  • 011230Z 19013KT 150V220 9999 FEW040 24/14 Q1014 NOSIG

EXPIRED METARs :
  • 011200Z 19011KT 160V220 9999 FEW040 24/15 Q1014 NOSIG
  • 011130Z 19010KT 160V220 9999 FEW040 24/15 Q1014 NOSIG
  • 011100Z 17008KT 130V210 9999 FEW040 23/14 Q1014 NOSIG
  • 011030Z 19007KT 140V230 9999 FEW040 23/14 Q1015 NOSIG
  • 011000Z 19008KT 150V220 9999 FEW045 23/13 Q1015 NOSIG

TAF TAF LEBL
Valid from the 01 at 12:00 until the 02 at 12:00 UTC


011100Z 0112/0212 19010KT 9999 FEW030 TX26/0112Z TN19/0206Z
BECMG 0118/0120 09005KT
BECMG 0123/0201 34007KT
BECMG 0208/0210 12010KT



MET'MAP, your aeronautical weather chart ! - Copyright ORBIFLY December 2007 - Disclaimer

ORBIFLY MET'MAP TEAM :

Programming & Development : Alexandra Zaïnal
Concept & original design : Baudouin d'Aumeries
Assistance for programming : Marc-Olivier Méhu
Technical & hardware support : Manuel Goepfert

Contact : metmap@orbifly.com




SOURCES & CREDITS :

   NOAA